Time;durP1;ratioP1;P1;durP2;ratioP2;P2;SDS_P1;SDS_P2;PMS_P1;PMS_P2;Temp;Humidity;BMP_temperature;BMP_pressure;BME280_temperature;BME280_humidity;BME280_pressure;Samples;Min_cycle;Max_cycle;Signal;HPM_P1;HPM_P2
2022/10/13 00:00:31;;;;;;;;;;;20.90;42.90;19.70;101570.00;;;;5078672;28;20317;-67
2022/10/13 00:03:17;;;;;;;;;;;21.00;42.90;19.70;101571.00;;;;5087088;28;19924;-67
2022/10/13 00:06:08;;;;;;;;;;;21.00;42.90;19.70;101565.00;;;;5085126;28;19963;-67
2022/10/13 00:08:55;;;;;;;;;;;21.00;42.90;19.70;101573.00;;;;5091742;28;20774;-67
2022/10/13 00:11:41;;;;;;;;;;;21.00;42.90;19.70;101573.00;;;;5080362;28;19915;-67
2022/10/13 00:14:27;;;;;;;;;;;21.00;42.90;19.70;101574.00;;;;5075455;28;19920;-67
2022/10/13 00:17:13;;;;;;;;;;;21.00;42.90;19.70;101564.00;;;;5082139;28;20281;-67
2022/10/13 00:19:59;;;;;;;;;;;21.00;42.90;19.70;101570.00;;;;5082694;28;19920;-67
2022/10/13 00:22:45;;;;;;;;;;;21.00;42.80;19.70;101563.00;;;;5079593;28;20002;-67
2022/10/13 00:25:31;;;;;;;;;;;21.00;42.90;19.70;101561.00;;;;5063733;28;20282;-67
2022/10/13 00:28:18;;;;;;;;;;;21.00;42.90;19.70;101562.00;;;;5075856;28;19917;-67
2022/10/13 00:31:17;;;;;;;;;;;21.00;42.80;19.70;101567.00;;;;5093624;28;20377;-67
2022/10/13 00:34:03;;;;;;;;;;;21.00;42.80;19.70;101564.00;;;;5098325;28;19919;-67
2022/10/13 00:36:49;;;;;;;;;;;20.90;42.80;19.70;101562.00;;;;5072954;28;19916;-67
2022/10/13 00:39:35;;;;;;;;;;;21.00;42.80;19.70;101558.00;;;;5082365;28;19916;-67
2022/10/13 00:42:25;;;;;;;;;;;20.90;42.80;19.70;101555.00;;;;5079612;28;19924;-67
2022/10/13 00:45:16;;;;;;;;;;;21.00;42.80;19.70;101557.00;;;;5085656;28;19927;-67
2022/10/13 00:48:03;;;;;;;;;;;21.00;42.80;19.70;101552.00;;;;5079977;28;20328;-67
2022/10/13 00:50:49;;;;;;;;;;;21.00;42.80;19.70;101555.00;;;;5085985;28;19916;-67
2022/10/13 00:53:35;;;;;;;;;;;21.00;42.80;19.70;101552.00;;;;5094426;28;19923;-67
2022/10/13 00:56:21;;;;;;;;;;;21.00;42.80;19.70;101561.00;;;;5050509;28;19916;-67
2022/10/13 00:59:11;;;;;;;;;;;21.00;42.80;19.70;101558.00;;;;5077398;28;20410;-67
2022/10/13 01:01:57;;;;;;;;;;;21.00;42.90;19.70;101556.00;;;;5091647;28;19916;-67
2022/10/13 01:04:44;;;;;;;;;;;21.00;42.80;19.70;101555.00;;;;5092073;28;20266;-67
2022/10/13 01:07:30;;;;;;;;;;;21.00;42.80;19.70;101541.00;;;;5082668;28;19927;-67
2022/10/13 01:10:23;;;;;;;;;;;21.00;42.80;19.70;101542.00;;;;5049206;28;19917;-67
2022/10/13 01:13:25;;;;;;;;;;;21.00;42.80;19.70;101537.00;;;;5080549;28;19926;-67
2022/10/13 01:16:28;;;;;;;;;;;20.90;42.80;19.70;101530.00;;;;5072108;28;19916;-67
2022/10/13 01:19:20;;;;;;;;;;;21.00;42.80;19.70;101517.00;;;;5078895;28;20366;-67
2022/10/13 01:22:38;;;;;;;;;;;21.00;42.90;19.70;101518.00;;;;5082302;28;19924;-67
2022/10/13 01:26:01;;;;;;;;;;;20.90;42.80;19.70;101522.00;;;;5075330;28;19920;-67
2022/10/13 01:29:11;;;;;;;;;;;20.90;42.80;19.60;101525.00;;;;5074419;28;19942;-67
2022/10/13 01:32:05;;;;;;;;;;;20.90;42.90;19.60;101512.00;;;;5087579;28;19924;-67
2022/10/13 01:34:58;;;;;;;;;;;20.90;42.80;19.60;101511.00;;;;5077130;28;19996;-67
2022/10/13 01:37:46;;;;;;;;;;;20.90;42.90;19.60;101509.00;;;;5088134;28;20353;-67
2022/10/13 01:40:55;;;;;;;;;;;20.90;42.90;19.60;101512.00;;;;5090989;28;19923;-67
2022/10/13 01:43:44;;;;;;;;;;;20.90;42.80;19.60;101505.00;;;;5090703;28;19924;-67
2022/10/13 01:46:32;;;;;;;;;;;20.90;42.90;19.60;101499.00;;;;5080673;28;20058;-67
2022/10/13 01:49:19;;;;;;;;;;;20.90;42.90;19.60;101494.00;;;;5054104;28;19973;-67
2022/10/13 01:52:11;;;;;;;;;;;20.90;42.80;19.60;101487.00;;;;5089566;28;19917;-67
2022/10/13 01:55:03;;;;;;;;;;;20.90;42.90;19.60;101494.00;;;;5087510;28;19921;-67
2022/10/13 01:57:49;;;;;;;;;;;20.90;42.80;19.60;101494.00;;;;5084915;28;20416;-67
2022/10/13 02:00:49;;;;;;;;;;;20.90;42.80;19.60;101496.00;;;;5085523;28;20224;-67
2022/10/13 02:03:56;;;;;;;;;;;21.00;42.90;19.60;101503.00;;;;5091338;27;20362;-67
2022/10/13 02:07:07;;;;;;;;;;;20.90;42.90;19.60;101503.00;;;;5092460;28;19923;-67
2022/10/13 02:10:06;;;;;;;;;;;20.90;42.80;19.60;101494.00;;;;5094409;27;20384;-67
2022/10/13 02:12:59;;;;;;;;;;;20.90;42.80;19.60;101482.00;;;;5067124;28;20056;-67
2022/10/13 02:15:48;;;;;;;;;;;20.90;42.90;19.60;101474.00;;;;5091714;28;20651;-67
2022/10/13 02:18:34;;;;;;;;;;;20.90;42.90;19.60;101476.00;;;;5089075;28;19916;-67
2022/10/13 02:21:20;;;;;;;;;;;20.90;42.90;19.60;101480.00;;;;5093349;27;19961;-67
2022/10/13 02:24:06;;;;;;;;;;;20.90;42.90;19.60;101481.00;;;;5061271;28;19924;-67
2022/10/13 02:26:52;;;;;;;;;;;20.90;42.90;19.60;101484.00;;;;5079026;28;19947;-67
2022/10/13 02:29:49;;;;;;;;;;;20.90;42.90;19.70;101480.00;;;;5079148;28;20495;-67
2022/10/13 02:32:35;;;;;;;;;;;20.90;42.90;19.70;101482.00;;;;5084324;28;19923;-67
2022/10/13 02:35:21;;;;;;;;;;;20.90;42.90;19.70;101486.00;;;;5086756;28;19924;-67
2022/10/13 02:38:07;;;;;;;;;;;21.00;42.90;19.70;101490.00;;;;5081668;28;19995;-67
2022/10/13 02:40:53;;;;;;;;;;;20.90;42.80;19.70;101493.00;;;;5072897;28;19916;-67
2022/10/13 02:43:39;;;;;;;;;;;20.90;42.90;19.70;101489.00;;;;5083965;28;19966;-67
2022/10/13 02:46:25;;;;;;;;;;;20.90;42.80;19.70;101482.00;;;;5077972;28;19962;-67
2022/10/13 02:49:11;;;;;;;;;;;20.90;42.80;19.70;101485.00;;;;5084408;28;19931;-67
2022/10/13 02:51:57;;;;;;;;;;;20.90;42.80;19.70;101480.00;;;;5082586;28;19919;-67
2022/10/13 02:54:43;;;;;;;;;;;21.00;42.90;19.70;101479.00;;;;5078969;28;19916;-67
2022/10/13 02:57:29;;;;;;;;;;;20.90;42.80;19.70;101473.00;;;;5078363;28;19921;-67
2022/10/13 03:00:15;;;;;;;;;;;21.00;42.90;19.70;101479.00;;;;5083012;28;20289;-67
2022/10/13 03:03:01;;;;;;;;;;;20.90;42.90;19.70;101479.00;;;;5090559;27;19930;-67
2022/10/13 03:05:47;;;;;;;;;;;21.00;42.90;19.70;101472.00;;;;5078899;28;19920;-67
2022/10/13 03:08:33;;;;;;;;;;;21.00;42.90;19.70;101469.00;;;;5079550;28;19929;-67
2022/10/13 03:11:19;;;;;;;;;;;20.90;42.90;19.70;101473.00;;;;5088100;28;19924;-67
2022/10/13 03:14:05;;;;;;;;;;;21.00;42.90;19.70;101468.00;;;;5079930;28;20033;-67
2022/10/13 03:16:51;;;;;;;;;;;21.00;42.90;19.70;101471.00;;;;5076525;28;20464;-67
2022/10/13 03:19:37;;;;;;;;;;;21.00;42.90;19.70;101469.00;;;;5076831;28;19943;-67
2022/10/13 03:22:23;;;;;;;;;;;21.00;42.90;19.70;101462.00;;;;5078729;28;19920;-67
2022/10/13 03:25:09;;;;;;;;;;;21.00;42.90;19.70;101459.00;;;;5101237;28;20003;-67
2022/10/13 03:27:55;;;;;;;;;;;21.00;42.90;19.70;101458.00;;;;5068228;28;20361;-67
2022/10/13 03:30:41;;;;;;;;;;;21.00;42.90;19.70;101466.00;;;;5085200;28;19973;-67
2022/10/13 03:33:27;;;;;;;;;;;21.00;42.90;19.70;101461.00;;;;5076608;28;19925;-67
2022/10/13 03:36:13;;;;;;;;;;;21.00;42.90;19.70;101453.00;;;;5075842;28;19920;-67
2022/10/13 03:38:59;;;;;;;;;;;21.00;43.00;19.70;101451.00;;;;5085846;28;19969;-67
2022/10/13 03:41:45;;;;;;;;;;;21.00;42.90;19.70;101461.00;;;;5074079;28;19916;-67
2022/10/13 03:44:31;;;;;;;;;;;21.00;42.90;19.70;101455.00;;;;5086047;28;19924;-67
2022/10/13 03:47:17;;;;;;;;;;;21.00;42.90;19.70;101454.00;;;;5079747;28;20503;-67
2022/10/13 03:50:04;;;;;;;;;;;21.00;42.90;19.70;101440.00;;;;5084367;28;20312;-67
2022/10/13 03:52:50;;;;;;;;;;;21.00;43.00;19.70;101447.00;;;;5060697;28;20007;-67
2022/10/13 03:55:36;;;;;;;;;;;21.00;42.90;19.70;101443.00;;;;5093478;28;19917;-67
2022/10/13 03:58:22;;;;;;;;;;;21.00;43.00;19.70;101436.00;;;;5068973;28;19920;-67
2022/10/13 04:01:09;;;;;;;;;;;21.00;43.00;19.70;101440.00;;;;5065055;28;20361;-67
2022/10/13 04:03:55;;;;;;;;;;;21.00;43.00;19.70;101429.00;;;;5081527;28;19935;-67
2022/10/13 04:06:41;;;;;;;;;;;21.00;43.00;19.70;101432.00;;;;5083371;28;20346;-67
2022/10/13 04:09:27;;;;;;;;;;;21.00;43.00;19.70;101427.00;;;;5076087;28;19920;-67
2022/10/13 04:12:13;;;;;;;;;;;21.00;43.00;19.70;101421.00;;;;5085711;28;20433;-67
2022/10/13 04:14:59;;;;;;;;;;;21.00;43.00;19.70;101416.00;;;;5086542;28;19920;-67
2022/10/13 04:17:45;;;;;;;;;;;21.00;43.00;19.70;101408.00;;;;5079512;28;19994;-67
2022/10/13 04:20:35;;;;;;;;;;;21.00;43.00;19.70;101406.00;;;;5082155;28;19959;-67
2022/10/13 04:23:21;;;;;;;;;;;21.10;43.10;19.70;101408.00;;;;5075703;28;19920;-67
2022/10/13 04:26:22;;;;;;;;;;;21.00;43.00;19.70;101407.00;;;;5092869;27;19924;-67
2022/10/13 04:29:08;;;;;;;;;;;21.00;43.00;19.70;101411.00;;;;5068135;28;19920;-67
2022/10/13 04:31:54;;;;;;;;;;;21.00;43.00;19.70;101412.00;;;;5093762;27;19927;-67
2022/10/13 04:34:40;;;;;;;;;;;21.10;43.10;19.70;101400.00;;;;5098941;28;19939;-67
2022/10/13 04:37:26;;;;;;;;;;;21.10;43.10;19.80;101406.00;;;;5094040;28;19919;-67
2022/10/13 04:40:12;;;;;;;;;;;21.10;43.10;19.70;101409.00;;;;5099217;28;20426;-67
2022/10/13 04:42:58;;;;;;;;;;;21.10;43.10;19.70;101401.00;;;;5093466;28;20049;-67
2022/10/13 04:45:44;;;;;;;;;;;21.10;43.80;19.70;101404.00;;;;5094920;28;19923;-67
2022/10/13 04:48:30;;;;;;;;;;;21.10;43.10;19.80;101406.00;;;;5100379;28;19920;-67
2022/10/13 04:51:19;;;;;;;;;;;21.10;43.10;19.70;101395.00;;;;5090038;28;19939;-67
2022/10/13 04:54:05;;;;;;;;;;;21.00;43.00;19.70;101400.00;;;;5101202;28;20004;-67
2022/10/13 04:56:52;;;;;;;;;;;21.10;43.10;19.70;101379.00;;;;5092671;28;20379;-67
2022/10/13 04:59:38;;;;;;;;;;;21.10;43.20;19.70;101393.00;;;;5093101;28;19923;-67
2022/10/13 05:02:24;;;;;;;;;;;21.00;43.10;19.80;101398.00;;;;5092082;28;19923;-67
2022/10/13 05:05:10;;;;;;;;;;;21.00;43.10;19.70;101395.00;;;;5084461;28;19923;-67
2022/10/13 05:07:56;;;;;;;;;;;21.10;43.10;19.70;101385.00;;;;5068750;28;19987;-67
2022/10/13 05:10:42;;;;;;;;;;;21.10;43.20;19.70;101374.00;;;;5076407;28;19928;-67
2022/10/13 05:13:28;;;;;;;;;;;21.10;43.10;19.70;101371.00;;;;5100356;28;19919;-67
2022/10/13 05:16:15;;;;;;;;;;;21.10;43.20;19.80;101370.00;;;;5107907;27;19916;-67
2022/10/13 05:19:01;;;;;;;;;;;21.10;43.20;19.80;101363.00;;;;5099869;27;19942;-67
2022/10/13 05:21:47;;;;;;;;;;;21.10;43.20;19.80;101372.00;;;;5081859;28;20220;-67
2022/10/13 05:24:36;;;;;;;;;;;21.10;43.20;19.80;101367.00;;;;5092361;28;19927;-67
2022/10/13 05:27:22;;;;;;;;;;;21.10;43.20;19.80;101374.00;;;;5099093;28;19991;-67
2022/10/13 05:30:08;;;;;;;;;;;21.10;43.20;19.80;101368.00;;;;5092578;28;19920;-67
2022/10/13 05:32:54;;;;;;;;;;;21.10;43.20;19.80;101367.00;;;;5100462;28;20353;-67
2022/10/13 05:35:40;;;;;;;;;;;21.10;43.20;19.80;101373.00;;;;5099698;28;20365;-67
2022/10/13 05:38:26;;;;;;;;;;;21.10;43.20;19.70;101373.00;;;;5099410;28;19923;-67
2022/10/13 05:41:12;;;;;;;;;;;21.10;43.20;19.70;101365.00;;;;5099279;28;19915;-67
2022/10/13 05:44:00;;;;;;;;;;;21.10;43.20;19.80;101359.00;;;;5116594;27;20034;-67
2022/10/13 05:46:46;;;;;;;;;;;21.10;43.30;19.80;101360.00;;;;5097902;28;20361;-67
2022/10/13 05:49:35;;;;;;;;;;;21.10;43.20;19.70;101366.00;;;;5101627;28;20023;-67
2022/10/13 05:52:22;;;;;;;;;;;21.00;43.20;19.80;101368.00;;;;5096687;28;19919;-67
2022/10/13 05:55:08;;;;;;;;;;;21.10;43.30;19.70;101349.00;;;;5111261;27;20008;-67
2022/10/13 05:57:54;;;;;;;;;;;21.10;43.30;19.80;101346.00;;;;5108490;27;20049;-67
2022/10/13 06:00:40;;;;;;;;;;;21.10;43.30;19.70;101343.00;;;;5103995;28;19919;-67
2022/10/13 06:03:26;;;;;;;;;;;21.10;43.30;19.70;101349.00;;;;5114602;27;19924;-67
2022/10/13 06:06:12;;;;;;;;;;;21.10;43.30;19.70;101349.00;;;;5097778;28;19999;-67
2022/10/13 06:08:59;;;;;;;;;;;21.10;43.30;19.80;101365.00;;;;5095707;28;19919;-66
2022/10/13 06:11:45;;;;;;;;;;;21.10;43.40;19.80;101361.00;;;;5089296;28;19931;-66
2022/10/13 06:14:31;;;;;;;;;;;21.00;43.30;19.80;101364.00;;;;5096902;28;19969;-70
2022/10/13 06:17:17;;;;;;;;;;;21.00;43.30;19.80;101362.00;;;;5094367;28;19947;-66
2022/10/13 06:20:04;;;;;;;;;;;21.10;43.40;19.80;101345.00;;;;5094799;28;19923;-66
2022/10/13 06:22:50;;;;;;;;;;;21.10;43.40;19.80;101343.00;;;;5095211;28;19920;-66
2022/10/13 06:25:37;;;;;;;;;;;21.10;43.40;19.80;101341.00;;;;5095767;28;19927;-67
2022/10/13 06:28:23;;;;;;;;;;;21.10;43.40;19.80;101343.00;;;;5091697;28;19943;-66
2022/10/13 06:31:09;;;;;;;;;;;21.10;43.40;19.80;101358.00;;;;5098786;28;19923;-66
2022/10/13 06:33:56;;;;;;;;;;;21.10;43.40;19.80;101341.00;;;;5099688;28;19965;-66
2022/10/13 06:36:42;;;;;;;;;;;21.10;43.40;19.80;101363.00;;;;5108777;27;19916;-68
2022/10/13 06:39:28;;;;;;;;;;;21.00;43.30;19.80;101346.00;;;;5109578;27;19920;-69
2022/10/13 06:42:15;;;;;;;;;;;21.10;43.40;19.80;101369.00;;;;5108301;27;19923;-68
2022/10/13 06:45:01;;;;;;;;;;;21.10;43.40;19.80;101355.00;;;;5096891;28;20193;-68
2022/10/13 06:47:47;;;;;;;;;;;21.10;43.40;19.80;101365.00;;;;5084899;28;19916;-68
2022/10/13 06:50:33;;;;;;;;;;;21.10;43.40;19.80;101345.00;;;;5079193;28;19928;-68
2022/10/13 06:53:19;;;;;;;;;;;21.10;43.40;19.80;101346.00;;;;5088088;28;19920;-68
2022/10/13 06:56:05;;;;;;;;;;;21.10;43.40;19.80;101362.00;;;;5083711;28;20053;-68
2022/10/13 06:58:51;;;;;;;;;;;21.10;43.50;19.80;101359.00;;;;5082730;28;20007;-68
2022/10/13 07:01:38;;;;;;;;;;;21.10;43.40;19.80;101370.00;;;;5080450;28;19921;-68
2022/10/13 07:04:24;;;;;;;;;;;21.10;43.50;19.80;101373.00;;;;5075961;28;19936;-69
2022/10/13 07:07:10;;;;;;;;;;;21.10;43.50;19.80;101379.00;;;;5078267;28;20364;-68
2022/10/13 07:09:56;;;;;;;;;;;21.10;43.50;19.80;101371.00;;;;5088044;28;20372;-65
2022/10/13 07:12:42;;;;;;;;;;;21.00;43.40;19.80;101364.00;;;;5077089;28;19975;-66
2022/10/13 07:15:28;;;;;;;;;;;21.10;43.50;19.80;101366.00;;;;5079930;28;19978;-66
2022/10/13 07:18:14;;;;;;;;;;;21.10;43.50;19.80;101359.00;;;;5085180;28;19916;-66
2022/10/13 07:21:00;;;;;;;;;;;21.10;43.50;19.80;101359.00;;;;5073813;28;20385;-66
2022/10/13 07:23:46;;;;;;;;;;;21.10;43.50;19.80;101358.00;;;;5094949;27;19920;-66
2022/10/13 07:26:32;;;;;;;;;;;21.10;43.50;19.80;101361.00;;;;5088228;28;19927;-71
2022/10/13 07:29:18;;;;;;;;;;;21.10;43.50;19.80;101367.00;;;;5056288;28;19920;-66
2022/10/13 07:32:05;;;;;;;;;;;21.10;43.50;19.80;101365.00;;;;5068577;28;19934;-66
2022/10/13 07:34:52;;;;;;;;;;;21.10;43.60;19.80;101359.00;;;;5103696;27;20285;-66
2022/10/13 07:37:38;;;;;;;;;;;21.10;43.60;19.80;101355.00;;;;5078859;28;19955;-66
2022/10/13 07:40:25;;;;;;;;;;;21.10;43.60;19.80;101346.00;;;;5078944;28;19923;-66
2022/10/13 07:43:11;;;;;;;;;;;21.10;43.60;19.80;101363.00;;;;5082872;28;20303;-66
2022/10/13 07:45:58;;;;;;;;;;;21.10;43.60;19.80;101360.00;;;;5075889;28;19924;-66
2022/10/13 07:48:44;;;;;;;;;;;21.10;43.60;19.80;101356.00;;;;5095722;27;19952;-66
2022/10/13 07:51:30;;;;;;;;;;;21.10;43.60;19.80;101355.00;;;;5080141;28;19920;-67
2022/10/13 07:54:17;;;;;;;;;;;21.20;43.60;19.80;101350.00;;;;5082657;28;19920;-66
2022/10/13 07:57:03;;;;;;;;;;;21.20;43.70;19.80;101360.00;;;;5077347;28;19917;-66
2022/10/13 07:59:50;;;;;;;;;;;21.10;43.60;19.80;101363.00;;;;5078182;28;19927;-66
2022/10/13 08:02:36;;;;;;;;;;;21.10;43.60;19.80;101359.00;;;;5084149;28;19927;-66
2022/10/13 08:05:22;;;;;;;;;;;21.10;43.60;19.80;101361.00;;;;5083477;28;20043;-66
2022/10/13 08:08:08;;;;;;;;;;;21.20;43.70;19.80;101362.00;;;;5076267;28;19924;-66
2022/10/13 08:10:54;;;;;;;;;;;21.10;43.70;19.80;101357.00;;;;5080870;28;19916;-66
2022/10/13 08:13:40;;;;;;;;;;;21.10;43.70;19.80;101343.00;;;;5083759;28;19916;-66
2022/10/13 08:16:26;;;;;;;;;;;21.10;43.70;19.80;101342.00;;;;5084552;28;20366;-66
2022/10/13 08:19:13;;;;;;;;;;;21.10;43.70;19.80;101341.00;;;;5059998;28;20286;-66
2022/10/13 08:21:59;;;;;;;;;;;21.10;43.70;19.80;101338.00;;;;5074329;28;19916;-66
2022/10/13 08:24:45;;;;;;;;;;;21.10;43.80;19.80;101343.00;;;;5087436;28;19931;-66
2022/10/13 08:27:31;;;;;;;;;;;21.20;43.80;19.80;101362.00;;;;5076640;28;19916;-66
2022/10/13 08:30:17;;;;;;;;;;;21.10;43.80;19.80;101339.00;;;;5088398;28;19924;-66
2022/10/13 08:33:03;;;;;;;;;;;21.20;43.90;19.80;101349.00;;;;5074463;28;19916;-66
2022/10/13 08:35:50;;;;;;;;;;;21.10;43.80;19.80;101357.00;;;;5075681;28;19924;-66
2022/10/13 08:38:36;;;;;;;;;;;21.10;43.80;19.80;101344.00;;;;5078938;28;19928;-66
2022/10/13 08:41:36;;;;;;;;;;;21.10;43.80;19.80;101345.00;;;;5085267;28;19920;-67
2022/10/13 08:44:30;;;;;;;;;;;21.20;43.80;19.80;101348.00;;;;5054212;28;20007;-66
2022/10/13 08:47:45;;;;;;;;;;;21.20;43.90;19.80;101345.00;;;;5059467;28;19939;-66
2022/10/13 08:50:34;;;;;;;;;;;21.10;43.80;19.80;101356.00;;;;5079242;28;19920;-66
2022/10/13 08:53:32;;;;;;;;;;;21.20;43.90;19.80;101343.00;;;;5086545;28;19916;-66
2022/10/13 08:56:23;;;;;;;;;;;21.10;43.80;19.80;101346.00;;;;5083252;28;19920;-68
2022/10/13 08:59:09;;;;;;;;;;;21.20;43.90;19.80;101343.00;;;;5076134;28;19982;-66
2022/10/13 09:01:55;;;;;;;;;;;21.10;43.90;19.80;101339.00;;;;5046318;28;20531;-66
2022/10/13 09:04:42;;;;;;;;;;;21.20;43.90;19.80;101340.00;;;;5052902;28;20361;-67
2022/10/13 09:07:31;;;;;;;;;;;21.20;43.90;19.90;101333.00;;;;5089061;27;19916;-67
2022/10/13 09:10:17;;;;;;;;;;;21.20;43.90;19.90;101337.00;;;;5071519;28;19920;-67
2022/10/13 09:13:03;;;;;;;;;;;21.20;43.90;19.90;101339.00;;;;5070537;28;19920;-66
2022/10/13 09:15:49;;;;;;;;;;;21.20;43.90;19.90;101327.00;;;;5065643;28;19943;-71
2022/10/13 09:18:36;;;;;;;;;;;21.10;43.90;19.90;101330.00;;;;5077887;28;20050;-67
2022/10/13 09:21:23;;;;;;;;;;;21.20;43.90;19.90;101327.00;;;;5071249;28;19916;-66
2022/10/13 09:24:17;;;;;;;;;;;21.20;43.90;19.90;101336.00;;;;5062326;28;19924;-67
2022/10/13 09:27:06;;;;;;;;;;;21.20;43.90;19.90;101329.00;;;;5077667;28;19923;-66
2022/10/13 09:29:52;;;;;;;;;;;21.20;43.90;19.90;101326.00;;;;5085685;28;20011;-67
2022/10/13 09:32:39;;;;;;;;;;;21.20;44.00;19.90;101323.00;;;;5080590;28;19923;-67
2022/10/13 09:35:25;;;;;;;;;;;21.20;44.00;19.90;101324.00;;;;5069969;28;20266;-67
2022/10/13 09:38:17;;;;;;;;;;;21.20;44.00;19.90;101316.00;;;;5075639;28;19987;-66
2022/10/13 09:41:10;;;;;;;;;;;21.20;44.00;19.90;101311.00;;;;5073726;28;20321;-66
2022/10/13 09:43:59;;;;;;;;;;;21.20;44.00;19.90;101312.00;;;;5077331;28;20281;-66
2022/10/13 09:46:53;;;;;;;;;;;21.20;44.10;19.90;101319.00;;;;5088044;28;20365;-66
2022/10/13 09:49:40;;;;;;;;;;;21.20;44.00;19.90;101320.00;;;;5085960;28;19930;-67
2022/10/13 09:52:26;;;;;;;;;;;21.30;44.10;19.90;101312.00;;;;5092802;28;19974;-67
2022/10/13 09:55:33;;;;;;;;;;;21.30;44.10;19.90;101322.00;;;;5074171;28;19923;-67
2022/10/13 09:58:22;;;;;;;;;;;21.20;44.10;19.90;101314.00;;;;5080752;28;19927;-67
2022/10/13 10:01:14;;;;;;;;;;;21.30;44.20;19.90;101313.00;;;;5080866;28;20382;-66
2022/10/13 10:04:03;;;;;;;;;;;21.30;44.20;19.90;101316.00;;;;5068394;28;20271;-67
2022/10/13 10:06:49;;;;;;;;;;;21.20;44.20;19.90;101313.00;;;;5056757;28;20490;-66
2022/10/13 10:09:39;;;;;;;;;;;21.20;44.20;19.90;101308.00;;;;5074830;28;20412;-65
2022/10/13 10:12:27;;;;;;;;;;;21.30;44.90;19.90;101312.00;;;;5061446;28;19916;-66
2022/10/13 10:15:22;;;;;;;;;;;21.20;44.20;19.90;101304.00;;;;5070085;28;19920;-66
2022/10/13 10:18:20;;;;;;;;;;;21.20;44.20;19.90;101303.00;;;;5075300;28;20239;-66
2022/10/13 10:21:09;;;;;;;;;;;21.20;44.20;19.90;101302.00;;;;5069271;28;19927;-66
2022/10/13 10:23:58;;;;;;;;;;;21.20;44.30;19.90;101309.00;;;;5073817;28;20428;-67
2022/10/13 10:26:47;;;;;;;;;;;21.20;44.30;19.90;101305.00;;;;5087860;28;19920;-66
2022/10/13 10:29:49;;;;;;;;;;;21.20;44.30;19.90;101296.00;;;;5089126;28;20289;-66
2022/10/13 10:32:45;;;;;;;;;;;21.30;44.40;19.90;101299.00;;;;5080891;28;19971;-66
2022/10/13 10:35:36;;;;;;;;;;;21.20;44.40;19.90;101302.00;;;;5080296;28;20404;-66
2022/10/13 10:38:41;;;;;;;;;;;21.20;44.40;19.90;101302.00;;;;5096936;27;19920;-66
2022/10/13 10:41:42;;;;;;;;;;;21.20;44.40;19.90;101305.00;;;;5073919;28;19971;-66
2022/10/13 10:44:35;;;;;;;;;;;21.20;44.40;19.90;101295.00;;;;5069191;28;19932;-66
2022/10/13 10:47:26;;;;;;;;;;;21.20;44.50;19.90;101295.00;;;;5054253;28;19916;-66
2022/10/13 10:50:14;;;;;;;;;;;21.20;44.50;19.90;101282.00;;;;5061213;28;20035;-66
2022/10/13 10:53:14;;;;;;;;;;;21.20;44.50;19.90;101284.00;;;;5090923;27;19931;-67
2022/10/13 10:56:26;;;;;;;;;;;21.20;44.50;19.90;101272.00;;;;5086230;27;20433;-66
2022/10/13 10:59:31;;;;;;;;;;;21.20;44.50;19.90;101272.00;;;;5064948;28;19917;-66
2022/10/13 11:02:35;;;;;;;;;;;21.20;44.50;19.90;101271.00;;;;5092702;27;19923;-66
2022/10/13 11:05:21;;;;;;;;;;;21.20;44.50;19.90;101270.00;;;;5076145;28;19924;-67
2022/10/13 11:08:27;;;;;;;;;;;21.10;44.50;19.90;101265.00;;;;5074676;28;20419;-66
2022/10/13 11:11:19;;;;;;;;;;;21.20;44.50;19.90;101261.00;;;;5092601;28;19923;-66
2022/10/13 11:14:05;;;;;;;;;;;21.20;44.60;19.90;101261.00;;;;5087958;28;19915;-66
2022/10/13 11:17:04;;;;;;;;;;;21.30;44.60;19.90;101255.00;;;;5079692;28;19920;-66
2022/10/13 11:19:50;;;;;;;;;;;21.20;44.60;19.90;101254.00;;;;5107530;27;20280;-66
2022/10/13 11:22:36;;;;;;;;;;;21.20;44.50;19.90;101245.00;;;;5092288;27;19920;-66
2022/10/13 11:25:42;;;;;;;;;;;21.30;44.60;19.90;101244.00;;;;5093547;28;19920;-67
2022/10/13 11:28:41;;;;;;;;;;;21.30;44.60;19.90;101242.00;;;;5075468;28;19928;-66
2022/10/13 11:31:47;;;;;;;;;;;21.20;44.60;19.90;101235.00;;;;5079227;28;20007;-66
2022/10/13 11:34:33;;;;;;;;;;;21.30;44.60;19.90;101230.00;;;;5097063;27;19959;-66
2022/10/13 11:37:21;;;;;;;;;;;21.30;44.60;19.90;101224.00;;;;5094783;27;19921;-66
2022/10/13 11:40:31;;;;;;;;;;;21.30;44.60;20.00;101232.00;;;;5051300;28;20026;-66
2022/10/13 11:43:35;;;;;;;;;;;21.30;44.60;20.00;101231.00;;;;5086994;28;19924;-66
2022/10/13 11:46:57;;;;;;;;;;;21.30;44.60;19.90;101234.00;;;;5077814;28;20003;-66
2022/10/13 11:49:56;;;;;;;;;;;21.30;44.60;19.90;101226.00;;;;5040132;28;19916;-66
2022/10/13 11:52:46;;;;;;;;;;;21.30;44.70;19.90;101224.00;;;;5075857;28;20388;-66
2022/10/13 11:55:43;;;;;;;;;;;21.30;44.70;19.90;101219.00;;;;5089987;28;19924;-66
2022/10/13 11:58:30;;;;;;;;;;;21.30;44.60;20.00;101220.00;;;;5070487;28;19924;-66
2022/10/13 12:01:17;;;;;;;;;;;21.30;44.60;20.00;101221.00;;;;5091237;28;19920;-66
2022/10/13 12:04:12;;;;;;;;;;;21.30;44.70;20.00;101220.00;;;;5083683;28;20288;-66
2022/10/13 12:07:00;;;;;;;;;;;21.30;44.70;20.00;101216.00;;;;5078699;28;19921;-66
2022/10/13 12:09:51;;;;;;;;;;;21.30;44.70;20.00;101208.00;;;;5083924;28;19966;-67
2022/10/13 12:12:37;;;;;;;;;;;21.30;44.70;20.00;101209.00;;;;5078669;28;19978;-66
2022/10/13 12:15:42;;;;;;;;;;;21.40;44.80;20.00;101209.00;;;;5077865;28;19920;-66
2022/10/13 12:18:32;;;;;;;;;;;21.30;44.70;20.00;101205.00;;;;5093274;27;19917;-66
2022/10/13 12:21:20;;;;;;;;;;;21.40;44.80;20.00;101204.00;;;;5082136;28;19927;-66
2022/10/13 12:24:07;;;;;;;;;;;21.30;44.80;20.00;101203.00;;;;5084880;28;20010;-66
2022/10/13 12:26:53;;;;;;;;;;;21.30;44.70;20.00;101199.00;;;;5081282;28;19967;-67
2022/10/13 12:29:40;;;;;;;;;;;21.40;44.80;20.00;101205.00;;;;5081959;28;19930;-66
2022/10/13 12:32:28;;;;;;;;;;;21.40;44.80;20.00;101207.00;;;;5088924;28;20309;-66
2022/10/13 12:35:40;;;;;;;;;;;21.40;44.80;20.00;101198.00;;;;5081388;28;20025;-66
2022/10/13 12:38:26;;;;;;;;;;;21.40;44.80;20.00;101196.00;;;;5085188;28;20210;-66
2022/10/13 12:41:13;;;;;;;;;;;21.50;44.80;20.00;101191.00;;;;5076161;28;19916;-66
2022/10/13 12:43:59;;;;;;;;;;;21.40;44.80;20.00;101202.00;;;;5078207;28;19920;-67
2022/10/13 12:46:47;;;;;;;;;;;21.50;44.80;20.00;101194.00;;;;5077189;28;19920;-66
2022/10/13 12:49:34;;;;;;;;;;;21.40;44.80;20.00;101185.00;;;;5088155;28;19920;-66
2022/10/13 12:52:23;;;;;;;;;;;21.40;44.80;20.00;101188.00;;;;5080073;28;19916;-66
2022/10/13 12:55:15;;;;;;;;;;;21.40;44.80;20.00;101188.00;;;;5050709;28;20012;-66
2022/10/13 12:58:01;;;;;;;;;;;21.40;44.80;20.00;101186.00;;;;5052009;28;19917;-66
2022/10/13 13:01:08;;;;;;;;;;;21.40;44.90;20.00;101188.00;;;;5071618;28;20220;-66
2022/10/13 13:04:14;;;;;;;;;;;21.50;44.90;20.10;101188.00;;;;5082932;28;19923;-66
2022/10/13 13:07:01;;;;;;;;;;;21.50;44.90;20.10;101191.00;;;;5084355;28;19916;-66
2022/10/13 13:10:07;;;;;;;;;;;21.50;44.90;20.10;101190.00;;;;5085194;28;19928;-66
2022/10/13 13:12:53;;;;;;;;;;;21.50;44.90;20.10;101188.00;;;;5085513;28;20346;-66
2022/10/13 13:15:40;;;;;;;;;;;21.50;44.90;20.10;101188.00;;;;5110547;27;19924;-66
2022/10/13 13:18:30;;;;;;;;;;;21.50;44.90;20.10;101187.00;;;;5093547;28;19916;-66
2022/10/13 13:21:17;;;;;;;;;;;21.40;44.90;20.10;101180.00;;;;5076007;28;19916;-66
2022/10/13 13:24:04;;;;;;;;;;;21.50;45.00;20.10;101199.00;;;;5070569;28;19962;-66
2022/10/13 13:26:50;;;;;;;;;;;21.50;45.00;20.10;101189.00;;;;5076776;28;19928;-66
2022/10/13 13:29:36;;;;;;;;;;;21.50;45.00;20.10;101190.00;;;;5074343;28;19916;-66
2022/10/13 13:32:23;;;;;;;;;;;21.50;45.00;20.00;101180.00;;;;5073745;28;19923;-66
2022/10/13 13:35:09;;;;;;;;;;;21.40;45.00;20.00;101187.00;;;;5071308;28;20010;-66
2022/10/13 13:37:55;;;;;;;;;;;21.50;45.10;20.00;101183.00;;;;5089165;28;20033;-66